Time;durP1;ratioP1;P1;durP2;ratioP2;P2;SDS_P1;SDS_P2;PMS_P1;PMS_P2;Temp;Humidity;BMP_temperature;BMP_pressure;BME280_temperature;BME280_humidity;BME280_pressure;Samples;Min_cycle;Max_cycle;Signal;HPM_P1;HPM_P2
2022/01/01 00:00:15;;;;;;;24.02;13.85;;;12.80;99.90;;;14.13;100.00;101218.44;5092410;28;20078;-74
2022/01/01 00:02:41;;;;;;;23.35;13.98;;;12.70;99.90;;;14.12;100.00;101222.47;5075534;28;20056;-78
2022/01/01 00:05:11;;;;;;;25.10;14.75;;;12.70;99.90;;;14.18;100.00;101218.19;5076694;28;20076;-79
2022/01/01 00:07:40;;;;;;;22.20;13.65;;;12.70;99.90;;;14.02;100.00;101219.41;5075758;28;20100;-75
2022/01/01 00:10:08;;;;;;;23.08;13.25;;;12.70;99.90;;;14.14;100.00;101222.06;5076737;28;20510;-77
2022/01/01 00:12:35;;;;;;;25.02;14.38;;;12.80;99.90;;;14.17;100.00;101224.16;5078035;28;20084;-76
2022/01/01 00:15:02;;;;;;;28.77;17.30;;;12.70;99.90;;;14.20;100.00;101232.66;5075869;28;20135;-77
2022/01/01 00:17:28;;;;;;;26.63;15.32;;;12.80;99.90;;;14.16;100.00;101225.31;5075699;28;20146;-76
2022/01/01 00:19:55;;;;;;;28.92;17.23;;;12.80;99.90;;;14.19;100.00;101236.63;5074784;28;20392;-78
2022/01/01 00:22:30;;;;;;;26.65;14.88;;;12.80;99.90;;;14.06;100.00;101240.75;5075389;28;20028;-76
2022/01/01 00:24:56;;;;;;;21.63;13.73;;;12.70;99.90;;;14.03;100.00;101233.06;5074340;28;20044;-76
2022/01/01 00:27:27;;;;;;;24.55;14.40;;;12.70;99.90;;;14.06;100.00;101243.56;5074710;28;20395;-77
2022/01/01 00:29:53;;;;;;;23.55;13.15;;;12.70;99.90;;;13.97;100.00;101240.16;5074798;28;20052;-77
2022/01/01 00:32:19;;;;;;;22.73;11.77;;;12.70;99.90;;;13.96;100.00;101244.16;5074040;28;20039;-78
2022/01/01 00:34:45;;;;;;;23.63;11.68;;;12.70;99.90;;;14.08;100.00;101252.47;5074590;28;20024;-75
2022/01/01 00:37:10;;;;;;;21.25;11.20;;;12.70;99.90;;;14.04;100.00;101240.31;5073149;28;20029;-74
2022/01/01 00:39:36;;;;;;;23.85;11.07;;;12.70;99.90;;;14.05;100.00;101249.56;5075103;28;20214;-75
2022/01/01 00:42:03;;;;;;;19.17;10.57;;;12.70;99.90;;;14.06;100.00;101240.75;5077918;28;20419;-75
2022/01/01 00:44:30;;;;;;;20.90;10.98;;;12.70;99.90;;;14.05;100.00;101241.97;5074002;28;20024;-75
2022/01/01 00:46:58;;;;;;;17.48;10.77;;;12.70;99.90;;;14.03;100.00;101227.44;5074831;28;20024;-77
2022/01/01 00:49:24;;;;;;;19.55;9.50;;;12.70;99.90;;;14.10;100.00;101232.41;5075575;28;20483;-75
2022/01/01 00:51:53;;;;;;;24.33;10.40;;;12.70;99.90;;;14.04;100.00;101225.47;5075137;28;20506;-77
2022/01/01 00:54:29;;;;;;;16.35;9.32;;;12.70;99.90;;;14.05;100.00;101224.28;5073159;28;20040;-78
2022/01/01 00:56:55;;;;;;;17.88;9.25;;;12.70;99.90;;;14.00;100.00;101227.41;5075127;28;20081;-77
2022/01/01 00:59:21;;;;;;;23.45;9.23;;;12.60;99.90;;;13.99;100.00;101237.81;5073897;28;20143;-78
2022/01/01 01:01:47;;;;;;;17.80;9.13;;;12.70;99.90;;;14.02;100.00;101230.66;5075316;28;20086;-78
2022/01/01 01:04:13;;;;;;;24.67;9.10;;;12.60;99.90;;;14.03;100.00;101238.69;5074583;28;20029;-75
2022/01/01 01:06:39;;;;;;;18.17;9.43;;;12.60;99.90;;;13.97;100.00;101242.97;5074357;28;20035;-77
2022/01/01 01:09:11;;;;;;;19.73;8.80;;;12.60;99.90;;;13.92;100.00;101251.69;5076262;28;20056;-76
2022/01/01 01:11:42;;;;;;;15.38;8.13;;;12.60;99.90;;;13.83;100.00;101253.91;5074398;28;20028;-78
2022/01/01 01:14:18;;;;;;;21.15;8.88;;;12.60;99.90;;;13.98;100.00;101257.84;5075584;28;20020;-78
2022/01/01 01:16:44;;;;;;;;;;;12.60;99.90;;;13.91;100.00;101264.09;5076081;28;20482;-78
2022/01/01 01:19:14;;;;;;;21.45;7.88;;;12.60;99.90;;;13.99;100.00;101260.28;5076524;28;20013;-76
2022/01/01 01:21:40;;;;;;;20.67;9.35;;;12.60;99.90;;;13.96;100.00;101269.44;5075597;28;20037;-76
2022/01/01 01:24:06;;;;;;;25.80;9.02;;;12.60;99.90;;;14.00;100.00;101275.94;5075862;28;20075;-78
2022/01/01 01:26:32;;;;;;;26.60;10.27;;;12.60;99.90;;;13.90;100.00;101279.31;5077879;28;20336;-78
2022/01/01 01:28:59;;;;;;;20.45;9.68;;;12.60;99.90;;;13.94;100.00;101271.78;5077869;28;20029;-78
2022/01/01 01:31:28;;;;;;;20.98;9.95;;;12.60;99.90;;;13.95;100.00;101272.59;5077498;28;20032;-78
2022/01/01 01:33:53;;;;;;;21.38;9.82;;;12.60;99.90;;;13.82;100.00;101266.28;5077385;28;20024;-77
2022/01/01 01:36:19;;;;;;;25.05;10.38;;;12.60;99.90;;;13.84;100.00;101265.94;5075710;28;20419;-78
2022/01/01 01:38:45;;;;;;;24.02;11.38;;;12.60;99.90;;;13.91;100.00;101266.91;5077220;28;20028;-78
2022/01/01 01:41:11;;;;;;;25.10;10.55;;;12.60;99.90;;;13.95;100.00;101265.00;5077229;28;20040;-77
2022/01/01 01:43:37;;;;;;;24.90;9.40;;;12.60;99.90;;;14.01;100.00;101271.97;5075488;28;20029;-78
2022/01/01 01:46:05;;;;;;;21.60;10.02;;;12.60;99.90;;;13.98;100.00;101269.88;5076966;28;20032;-78
2022/01/01 01:48:37;;;;;;;18.23;9.43;;;12.60;99.90;;;13.84;100.00;101275.16;5076422;28;20433;-78
2022/01/01 01:51:04;;;;;;;24.23;9.35;;;12.60;99.90;;;13.95;100.00;101273.44;5076079;28;20092;-78
2022/01/01 01:53:33;;;;;;;28.35;9.75;;;12.60;99.90;;;13.99;100.00;101279.13;5085328;28;20078;-79
2022/01/01 01:56:00;;;;;;;23.33;9.98;;;12.60;99.90;;;13.95;100.00;101269.78;5077359;28;20032;-77
2022/01/01 01:58:28;;;;;;;25.00;10.65;;;12.60;99.90;;;13.93;100.00;101269.38;5078191;28;20063;-78
2022/01/01 02:03:24;;;;;;;25.23;9.98;;;12.60;99.90;;;13.84;100.00;101269.53;5031450;28;20504;-80
2022/01/01 02:05:54;;;;;;;27.83;10.40;;;12.60;99.90;;;13.76;100.00;101266.94;5049145;28;20022;-80
2022/01/01 02:08:22;;;;;;;22.40;9.85;;;12.60;99.90;;;13.89;100.00;101274.91;5033419;28;20044;-79
2022/01/01 02:10:52;;;;;;;23.35;9.45;;;12.60;99.90;;;13.90;100.00;101273.69;5033504;28;20022;-78
2022/01/01 02:14:09;;;;;;;26.30;9.80;;;12.60;99.90;;;13.88;100.00;101273.25;5014153;28;20021;-79
2022/01/01 02:18:45;;;;;;;23.73;10.07;;;12.60;99.90;;;13.96;100.00;101277.88;5013771;28;20058;-78
2022/01/01 02:21:13;;;;;;;24.75;10.82;;;12.60;99.90;;;13.97;100.00;101287.91;5013973;28;20026;-80
2022/01/01 02:23:44;;;;;;;21.25;10.02;;;12.60;99.90;;;14.04;100.00;101282.47;5011696;28;20144;-78
2022/01/01 02:26:16;;;;;;;20.25;9.63;;;12.60;99.90;;;13.97;100.00;101289.91;5028287;28;20029;-79
2022/01/01 02:28:48;;;;;;;20.10;9.30;;;12.50;99.90;;;13.94;100.00;101285.81;5032514;28;20040;-77
2022/01/01 02:31:16;;;;;;;17.92;10.02;;;12.60;99.90;;;13.96;100.00;101285.47;5032041;28;20507;-77
2022/01/01 02:33:44;;;;;;;24.40;10.05;;;12.60;99.90;;;13.94;100.00;101280.22;5032975;28;20037;-77
2022/01/01 02:36:11;;;;;;;22.50;8.93;;;12.50;99.90;;;13.96;100.00;101282.66;5033135;28;20025;-79
2022/01/01 02:38:38;;;;;;;24.35;9.57;;;12.60;99.90;;;13.97;100.00;101285.09;5032684;28;20061;-81
2022/01/01 02:41:04;;;;;;;21.52;8.90;;;12.60;99.90;;;13.97;100.00;101285.09;5031056;28;20126;-80
2022/01/01 02:43:59;;;;;;;24.48;10.30;;;12.60;99.90;;;13.96;100.00;101277.88;5031917;28;20485;-79
2022/01/01 02:46:27;;;;;;;19.60;9.00;;;12.60;99.90;;;13.96;100.00;101275.06;5023324;28;20044;-79
2022/01/01 02:48:56;;;;;;;20.00;9.70;;;12.60;99.90;;;14.01;100.00;101269.16;5031923;28;20057;-80
2022/01/01 02:51:22;;;;;;;21.92;9.43;;;12.60;99.90;;;14.00;100.00;101263.91;5030852;28;20025;-78
2022/01/01 02:53:48;;;;;;;19.48;9.02;;;12.60;99.90;;;14.00;100.00;101264.69;5032442;28;20366;-80
2022/01/01 02:56:13;;;;;;;17.75;8.95;;;12.60;99.90;;;14.01;100.00;101268.31;5032507;28;20060;-79
2022/01/01 02:58:42;;;;;;;21.33;9.00;;;12.50;99.90;;;14.02;100.00;101270.78;5032078;28;20045;-78
2022/01/01 03:01:09;;;;;;;20.67;9.85;;;12.60;99.90;;;13.97;100.00;101262.63;5033011;28;20057;-80
2022/01/01 03:03:36;;;;;;;19.15;8.20;;;12.60;99.90;;;14.02;100.00;101270.78;5031050;28;20064;-78
2022/01/01 03:06:03;;;;;;;20.85;9.27;;;12.60;99.90;;;14.02;100.00;101267.16;5032605;28;20054;-78
2022/01/01 03:08:29;;;;;;;21.30;8.68;;;12.60;99.90;;;14.04;100.00;101279.66;5032969;28;20366;-80
2022/01/01 03:11:00;;;;;;;21.98;9.18;;;12.60;99.90;;;14.02;100.00;101287.63;5031019;28;20511;-80
2022/01/01 03:13:32;;;;;;;17.83;8.75;;;12.60;99.90;;;13.98;100.00;101292.34;5033152;28;20087;-78
2022/01/01 03:15:58;;;;;;;27.20;8.35;;;12.60;99.90;;;14.05;100.00;101292.53;5032839;28;20017;-80
2022/01/01 03:18:27;;;;;;;20.45;9.13;;;12.60;99.90;;;13.99;100.00;101294.00;5036482;28;20032;-78
2022/01/01 03:20:53;;;;;;;22.90;9.77;;;12.60;99.90;;;14.01;100.00;101297.22;5036755;28;20033;-78
2022/01/01 03:23:21;;;;;;;19.35;8.63;;;12.70;99.90;;;14.04;100.00;101301.31;5037248;28;20029;-80
2022/01/01 03:25:50;;;;;;;23.98;9.75;;;12.70;99.90;;;14.08;100.00;101302.22;5024525;28;20034;-79
2022/01/01 03:28:17;;;;;;;23.30;9.02;;;12.60;99.90;;;14.09;100.00;101304.66;5016093;28;20026;-77
2022/01/01 03:30:44;;;;;;;23.20;9.38;;;12.60;99.90;;;14.04;100.00;101304.09;5017271;28;20036;-77
2022/01/01 03:33:10;;;;;;;22.10;9.30;;;12.70;99.90;;;14.08;100.00;101308.66;5017008;28;20056;-79
2022/01/01 03:35:42;;;;;;;28.08;9.45;;;12.70;99.90;;;14.11;100.00;101310.72;5017160;28;20026;-78
2022/01/01 03:38:10;;;;;;;23.25;8.60;;;12.70;99.90;;;14.04;100.00;101301.31;5035491;28;20022;-79
2022/01/01 03:40:40;;;;;;;23.60;10.57;;;12.70;99.90;;;14.07;100.00;101300.56;5039512;28;20393;-81
2022/01/01 03:43:05;;;;;;;20.67;9.13;;;12.70;99.90;;;14.10;100.00;101297.84;5032092;28;20113;-77
2022/01/01 03:45:31;;;;;;;18.65;9.27;;;12.70;99.90;;;14.04;100.00;101287.25;5017416;28;20038;-78
2022/01/01 03:48:00;;;;;;;27.38;9.32;;;12.70;99.90;;;14.11;100.00;101293.03;5017305;28;20026;-79
2022/01/01 03:50:26;;;;;;;16.80;8.98;;;12.70;99.90;;;14.03;100.00;101292.06;5017270;28;20026;-77
2022/01/01 03:52:52;;;;;;;18.70;11.02;;;12.70;99.90;;;14.03;100.00;101283.63;5017739;28;20418;-78
2022/01/01 03:55:18;;;;;;;20.70;10.48;;;12.70;99.90;;;14.06;100.00;101299.75;5015927;28;20034;-78
2022/01/01 03:57:44;;;;;;;24.23;10.93;;;12.70;99.90;;;14.12;100.00;101292.69;5015903;28;20190;-77
2022/01/01 04:00:11;;;;;;;18.65;9.38;;;12.70;99.90;;;14.14;100.00;101295.13;5031136;28;20030;-77
2022/01/01 04:02:38;;;;;;;22.35;10.40;;;12.70;99.90;;;14.12;100.00;101295.50;5015408;28;20081;-79
2022/01/01 04:05:05;;;;;;;21.65;9.98;;;12.70;99.90;;;14.05;100.00;101291.69;5016159;28;20060;-78
2022/01/01 04:07:32;;;;;;;21.45;9.50;;;12.70;99.90;;;14.06;100.00;101293.34;5016391;28;20030;-77
2022/01/01 04:10:01;;;;;;;21.75;9.82;;;12.70;99.90;;;14.02;100.00;101286.81;5016647;28;20022;-78
2022/01/01 04:12:27;;;;;;;20.80;9.93;;;12.60;99.90;;;14.04;100.00;101290.06;5016386;28;20058;-78
2022/01/01 04:14:53;;;;;;;25.35;9.98;;;12.60;99.90;;;14.04;100.00;101284.44;5015821;28;20065;-79
2022/01/01 04:17:22;;;;;;;20.20;9.25;;;12.60;99.90;;;14.07;100.00;101275.28;5014996;28;20076;-79
2022/01/01 04:19:51;;;;;;;28.45;10.45;;;12.60;99.90;;;14.04;100.00;101278.84;5016297;28;20026;-78
2022/01/01 04:22:16;;;;;;;23.17;9.75;;;12.60;99.90;;;13.93;100.00;101267.38;5016014;28;20481;-78
2022/01/01 04:24:43;;;;;;;23.33;9.93;;;12.60;99.90;;;14.02;100.00;101267.97;5019116;28;20037;-81
2022/01/01 04:27:11;;;;;;;22.23;10.05;;;12.60;99.90;;;14.06;100.00;101270.88;5034867;28;20060;-81
2022/01/01 04:29:38;;;;;;;22.38;9.90;;;12.60;99.90;;;14.07;100.00;101264.06;5034507;28;20029;-79
2022/01/01 04:32:07;;;;;;;18.88;9.15;;;12.70;99.90;;;14.06;100.00;101268.06;5035389;28;20052;-80
2022/01/01 04:34:33;;;;;;;24.17;9.77;;;12.70;99.90;;;14.07;100.00;101269.66;5035081;28;20069;-79
2022/01/01 04:37:04;;;;;;;22.80;10.23;;;12.70;99.90;;;14.07;100.00;101269.66;5035026;28;20040;-80
2022/01/01 04:39:32;;;;;;;25.35;10.35;;;12.70;99.90;;;14.04;100.00;101267.59;5035504;28;20038;-80
2022/01/01 04:42:02;;;;;;;27.70;10.65;;;12.70;99.90;;;14.06;100.00;101277.28;5035007;28;20096;-78
2022/01/01 04:44:28;;;;;;;22.45;10.88;;;12.70;99.90;;;14.14;100.00;101278.25;5035456;28;20492;-80
2022/01/01 04:46:54;;;;;;;22.50;9.60;;;12.70;99.90;;;14.11;100.00;101277.00;5033583;28;20172;-79
2022/01/01 04:49:22;;;;;;;19.85;10.07;;;12.70;99.90;;;14.06;100.00;101279.31;5034806;28;20052;-79
2022/01/01 04:51:48;;;;;;;27.15;9.90;;;12.70;99.90;;;14.11;100.00;101281.81;5034807;28;20084;-79
2022/01/01 04:54:17;;;;;;;28.85;10.38;;;12.70;99.90;;;14.10;100.00;101278.19;5035450;28;20452;-80
2022/01/01 04:56:47;;;;;;;24.88;10.23;;;12.70;99.90;;;14.11;100.00;101279.81;5035061;28;20026;-78
2022/01/01 04:59:17;;;;;;;23.70;10.02;;;12.70;99.90;;;14.07;100.00;101278.09;5033708;28;20028;-80
2022/01/01 05:01:44;;;;;;;24.15;9.93;;;12.70;99.90;;;14.08;100.00;101274.94;5034762;28;20029;-80
2022/01/01 05:04:10;;;;;;;19.10;9.05;;;12.70;99.90;;;13.97;100.00;101265.44;5050017;28;20044;-80
2022/01/01 05:06:37;;;;;;;25.25;10.20;;;12.70;99.90;;;14.03;100.00;101260.38;5034608;28;20064;-78
2022/01/01 05:09:03;;;;;;;21.90;10.30;;;12.60;99.90;;;14.02;100.00;101267.16;5033254;28;20123;-79
2022/01/01 05:11:32;;;;;;;20.92;9.50;;;12.60;99.90;;;14.00;100.00;101264.69;5033454;28;20034;-80
2022/01/01 05:13:58;;;;;;;17.42;8.52;;;12.60;99.90;;;14.01;100.00;101266.34;5032750;28;20396;-79
2022/01/01 05:16:24;;;;;;;25.63;8.85;;;12.60;99.90;;;14.05;100.00;101274.84;5033891;28;20109;-80
2022/01/01 05:18:51;;;;;;;18.10;8.20;;;12.60;99.90;;;13.99;100.00;101282.75;5033014;28;20033;-80
2022/01/01 05:21:19;;;;;;;23.48;8.70;;;12.60;99.90;;;14.00;100.00;101284.38;5034151;28;20029;-80
2022/01/01 05:23:45;;;;;;;18.75;7.88;;;12.60;99.90;;;14.08;100.00;101296.59;5033941;28;20392;-77
2022/01/01 05:26:14;;;;;;;16.88;7.97;;;12.60;99.90;;;14.08;100.00;101293.78;5018786;28;20033;-80
2022/01/01 05:28:40;;;;;;;22.35;9.05;;;12.60;99.90;;;14.06;100.00;101299.75;5014290;28;20033;-80
2022/01/01 05:31:09;;;;;;;20.17;8.10;;;12.60;99.90;;;14.03;100.00;101297.69;5014610;28;20026;-78
2022/01/01 05:33:37;;;;;;;19.10;7.22;;;12.60;99.90;;;13.99;100.00;101310.03;5013228;28;20065;-80
2022/01/01 05:36:03;;;;;;;17.10;6.95;;;12.60;99.90;;;14.06;100.00;101308.19;5014097;28;20052;-78
2022/01/01 05:38:29;;;;;;;16.08;7.05;;;12.60;99.90;;;14.06;100.00;101316.59;5014567;28;20488;-80
2022/01/01 05:40:55;;;;;;;17.70;8.07;;;12.70;99.90;;;14.09;100.00;101310.28;5014293;28;20037;-80
2022/01/01 05:43:22;;;;;;;15.70;6.55;;;12.60;99.90;;;14.10;100.00;101313.88;5013608;28;20563;-79
2022/01/01 05:45:51;;;;;;;17.70;7.30;;;12.70;99.90;;;14.04;100.00;101321.78;5014055;28;20053;-78
2022/01/01 05:48:17;;;;;;;17.17;6.88;;;12.70;99.90;;;14.04;100.00;101332.19;5012832;28;20293;-78
2022/01/01 05:50:43;;;;;;;16.77;6.05;;;12.70;99.90;;;14.04;100.00;101323.78;5013773;28;20033;-79
2022/01/01 05:53:09;;;;;;;23.38;7.10;;;12.70;99.90;;;14.05;100.00;101326.22;5013142;28;20030;-80
2022/01/01 05:55:38;;;;;;;19.33;7.28;;;12.60;99.90;;;14.06;100.00;101322.22;5014670;28;20065;-80
2022/01/01 05:58:05;;;;;;;16.55;6.95;;;12.60;99.90;;;14.04;100.00;101338.63;5014729;28;20045;-80
2022/01/01 06:00:35;;;;;;;16.73;6.68;;;12.60;99.90;;;13.99;100.00;101321.25;5013373;28;20048;-79
2022/01/01 06:03:02;;;;;;;17.25;6.07;;;12.60;99.90;;;14.04;100.00;101318.97;5011624;28;20025;-80
2022/01/01 06:05:30;;;;;;;18.00;7.28;;;12.60;99.90;;;14.05;100.00;101320.63;5013372;28;20030;-77
2022/01/01 06:07:58;;;;;;;18.75;6.38;;;12.60;99.90;;;14.05;100.00;101316.97;5013894;28;20044;-78
2022/01/01 06:10:27;;;;;;;13.68;6.50;;;12.60;99.90;;;14.04;100.00;101323.78;5014232;28;20054;-77
2022/01/01 06:12:54;;;;;;;15.68;5.85;;;12.60;99.90;;;13.99;100.00;101304.41;5013285;28;20030;-79
2022/01/01 06:15:26;;;;;;;16.67;6.97;;;12.50;99.90;;;13.95;100.00;101315.56;5013538;28;20033;-78
2022/01/01 06:17:55;;;;;;;19.10;6.53;;;12.50;99.90;;;13.95;100.00;101321.16;5013511;28;20037;-79
2022/01/01 06:20:20;;;;;;;14.55;6.60;;;12.50;99.90;;;14.02;100.00;101318.53;5013314;28;20416;-80
2022/01/01 06:22:47;;;;;;;17.60;5.82;;;12.60;99.90;;;14.02;100.00;101323.34;5013488;28;20213;-77
2022/01/01 06:25:13;;;;;;;20.70;6.40;;;12.60;99.90;;;14.07;100.00;101323.84;5020530;28;20040;-78
2022/01/01 06:27:45;;;;;;;21.42;6.95;;;12.60;99.90;;;13.98;100.00;101326.06;5033176;28;20117;-80
2022/01/01 06:30:17;;;;;;;14.02;6.35;;;12.60;99.90;;;14.04;100.00;101321.78;5033871;28;20028;-77
2022/01/01 06:32:42;;;;;;;15.18;5.93;;;12.60;99.90;;;14.02;100.00;101324.16;5031631;28;20203;-80
2022/01/01 06:35:08;;;;;;;16.90;6.40;;;12.60;99.90;;;14.05;100.00;101342.25;5032952;28;20085;-79
2022/01/01 06:37:34;;;;;;;17.80;6.43;;;12.60;99.90;;;14.07;100.00;101339.91;5032833;28;20356;-79
2022/01/01 06:40:00;;;;;;;19.30;5.97;;;12.60;99.90;;;14.03;100.00;101345.41;5031493;28;20335;-80
2022/01/01 06:42:26;;;;;;;11.85;5.28;;;12.60;99.90;;;14.07;100.00;101342.69;5032152;28;20056;-79
2022/01/01 06:44:55;;;;;;;14.95;6.25;;;12.60;99.90;;;14.13;100.00;101349.66;5032651;28;20441;-79
2022/01/01 06:47:25;;;;;;;17.45;6.20;;;12.60;99.90;;;13.98;100.00;101345.72;5031952;28;20438;-78
2022/01/01 06:49:51;;;;;;;15.98;6.57;;;12.70;99.90;;;14.05;100.00;101343.09;5033524;28;20128;-80
2022/01/01 06:52:19;;;;;;;14.45;5.93;;;12.60;99.90;;;14.03;100.00;101342.63;5047665;28;20107;-80
2022/01/01 06:54:45;;;;;;;16.15;5.38;;;12.60;99.90;;;14.08;100.00;101344.34;5032132;28;20026;-80
2022/01/01 06:57:11;;;;;;;15.05;6.03;;;12.70;99.90;;;14.06;100.00;101341.09;5033434;28;20341;-80
2022/01/01 06:59:43;;;;;;;17.17;5.45;;;12.70;99.90;;;14.08;100.00;101339.53;5034512;28;20068;-80
2022/01/01 07:02:09;;;;;;;13.65;5.32;;;12.70;99.90;;;14.01;100.00;101347.78;5033493;28;20173;-78
2022/01/01 07:04:34;;;;;;;13.60;5.15;;;12.70;99.90;;;14.10;100.00;101341.97;5033572;28;20091;-78
2022/01/01 07:07:03;;;;;;;16.75;5.75;;;12.70;99.90;;;14.12;100.00;101343.25;5033347;28;20032;-79
2022/01/01 07:09:32;;;;;;;11.93;5.05;;;12.70;99.90;;;14.10;100.00;101345.59;5033859;28;20037;-78
2022/01/01 07:11:57;;;;;;;11.20;5.05;;;12.70;99.90;;;14.14;100.00;101338.06;5032233;28;20032;-79
2022/01/01 07:14:32;;;;;;;12.82;5.05;;;12.70;99.90;;;14.21;100.00;101351.47;5033226;28;20120;-78
2022/01/01 07:16:58;;;;;;;11.63;4.82;;;12.80;99.90;;;14.14;100.00;101345.69;5033897;28;20532;-78
2022/01/01 07:19:24;;;;;;;12.25;4.32;;;12.80;99.90;;;14.13;100.00;101335.63;5032225;28;20052;-79
2022/01/01 07:21:50;;;;;;;14.77;4.90;;;12.70;99.90;;;14.12;100.00;101342.44;5033257;28;20049;-78
2022/01/01 07:24:15;;;;;;;13.20;4.07;;;12.80;99.90;;;14.12;100.00;101342.44;5033499;28;20412;-79
2022/01/01 07:26:41;;;;;;;9.70;4.38;;;12.80;99.90;;;14.15;100.00;101336.09;5014544;28;20037;-79
2022/01/01 07:29:07;;;;;;;14.88;4.15;;;12.80;99.90;;;14.16;99.80;101341.31;5012120;28;20026;-79
2022/01/01 07:31:33;;;;;;;13.65;3.97;;;12.80;99.90;;;14.09;100.00;101348.78;5013665;28;20037;-80
2022/01/01 07:33:59;;;;;;;12.85;4.38;;;12.80;99.90;;;14.19;99.69;101351.81;5012790;28;20182;-78
2022/01/01 07:36:24;;;;;;;11.93;3.88;;;12.80;99.90;;;14.11;99.52;101355.66;5014107;28;20034;-78
2022/01/01 07:38:50;;;;;;;13.65;4.38;;;12.80;99.90;;;14.08;99.54;101347.97;5012715;28;20030;-78
2022/01/01 07:41:16;;;;;;;9.05;3.88;;;12.80;99.90;;;14.16;99.64;101348.94;5012768;28;20034;-79
2022/01/01 07:43:42;;;;;;;13.15;4.40;;;12.80;99.90;;;14.09;99.30;101352.41;5012744;28;20033;-78
2022/01/01 07:46:09;;;;;;;13.93;3.88;;;12.80;99.90;;;14.11;99.18;101346.41;5012071;28;20067;-80
2022/01/01 07:48:34;;;;;;;12.32;3.97;;;12.80;99.90;;;14.16;99.20;101354.56;5012476;28;20026;-79
2022/01/01 07:51:00;;;;;;;12.25;3.78;;;12.80;99.90;;;14.15;99.10;101352.94;5012628;28;20249;-80
2022/01/01 07:53:26;;;;;;;10.00;3.30;;;12.80;99.90;;;14.16;99.06;101357.34;5011181;28;20026;-79
2022/01/01 07:55:55;;;;;;;10.73;4.00;;;12.80;99.90;;;14.16;98.76;101354.56;5012442;28;20144;-80
2022/01/01 07:58:21;;;;;;;9.20;3.13;;;12.90;99.90;;;14.20;98.35;101361.91;5012073;28;20065;-79
2022/01/01 08:00:50;;;;;;;9.23;3.42;;;12.90;99.90;;;14.16;98.44;101363.81;5019544;28;20036;-80
2022/01/01 08:03:16;;;;;;;10.27;3.08;;;12.90;99.90;;;14.16;98.21;101352.56;5035371;28;20093;-79
2022/01/01 08:05:41;;;;;;;12.48;4.25;;;12.90;99.90;;;14.27;97.96;101372.50;5038831;28;20041;-78
2022/01/01 08:08:07;;;;;;;13.60;3.50;;;12.90;99.90;;;14.37;97.26;101373.94;5020763;28;20408;-80
2022/01/01 08:10:34;;;;;;;11.38;3.70;;;12.90;99.90;;;14.35;97.45;101376.31;5014975;28;20432;-79
2022/01/01 08:13:01;;;;;;;12.45;3.63;;;12.90;99.90;;;14.27;97.33;101375.28;5015454;28;20029;-79
2022/01/01 08:15:27;;;;;;;7.03;3.17;;;12.90;99.90;;;14.26;97.56;101374.47;5015069;28;20057;-78
2022/01/01 08:17:52;;;;;;;12.38;3.33;;;12.90;99.90;;;14.30;97.42;101373.75;5016712;28;20087;-78
2022/01/01 08:20:19;;;;;;;10.52;3.20;;;13.00;99.90;;;14.36;97.07;101369.50;5014524;28;20131;-80
2022/01/01 08:22:48;;;;;;;15.68;3.75;;;12.90;99.90;;;14.29;97.71;101370.13;5015990;28;20037;-80
2022/01/01 08:25:16;;;;;;;8.48;2.83;;;12.90;99.90;;;14.36;97.01;101375.94;5024138;28;20081;-79
2022/01/01 08:27:43;;;;;;;9.13;3.33;;;13.00;99.90;;;14.42;96.93;101376.47;5036292;28;20032;-81
2022/01/01 08:30:10;;;;;;;9.45;3.10;;;13.00;99.90;;;14.45;96.81;101384.19;5035162;28;20045;-78
2022/01/01 08:32:36;;;;;;;8.32;2.95;;;13.00;99.90;;;14.47;96.56;101379.00;5033995;28;20026;-77
2022/01/01 08:35:03;;;;;;;9.68;3.22;;;13.00;99.90;;;14.46;96.47;101386.63;5035532;28;20037;-82
2022/01/01 08:37:33;;;;;;;11.82;3.42;;;13.00;99.90;;;14.44;96.22;101396.59;5036628;28;20034;-79
2022/01/01 08:39:58;;;;;;;10.52;3.10;;;13.00;99.90;;;14.46;96.26;101400.66;5036481;28;20033;-80
2022/01/01 08:42:27;;;;;;;9.63;3.28;;;13.00;99.90;;;14.45;96.24;101403.88;5034616;28;20029;-80
2022/01/01 08:44:56;;;;;;;8.77;3.53;;;13.10;99.90;;;14.47;95.68;101401.50;5035993;28;20342;-80
2022/01/01 08:47:26;;;;;;;9.40;3.30;;;13.10;99.90;;;14.52;95.66;101404.81;5036052;28;20030;-81
2022/01/01 08:49:55;;;;;;;9.85;3.03;;;13.10;99.90;;;14.57;95.26;101410.19;5037888;28;20022;-81
2022/01/01 08:52:25;;;;;;;10.88;3.05;;;13.10;99.90;;;14.53;95.25;101412.09;5036192;28;20034;-81
2022/01/01 08:54:56;;;;;;;13.00;3.22;;;13.10;99.90;;;14.50;95.23;101410.00;5034313;28;20508;-80
2022/01/01 08:57:24;;;;;;;8.57;2.72;;;13.10;99.90;;;14.50;95.47;101403.56;5035147;28;20045;-80
2022/01/01 08:59:50;;;;;;;9.77;2.55;;;13.10;99.90;;;14.59;95.07;101405.00;5036735;28;20040;-79
2022/01/01 09:02:16;;;;;;;7.90;2.90;;;13.10;99.90;;;14.53;95.50;101402.84;5035951;28;20026;-80
2022/01/01 09:04:42;;;;;;;10.93;3.60;;;13.10;99.90;;;14.53;95.28;101403.66;5035810;28;20033;-79
2022/01/01 09:07:07;;;;;;;12.05;3.47;;;13.10;99.90;;;14.56;94.96;101411.34;5036321;28;20342;-79
2022/01/01 09:09:40;;;;;;;7.68;2.50;;;13.20;99.90;;;14.68;94.50;101408.41;5036318;28;20033;-78
2022/01/01 09:12:10;;;;;;;9.65;2.25;;;13.20;99.90;;;14.66;94.57;101407.97;5033589;28;20025;-80
2022/01/01 09:14:39;;;;;;;7.07;2.45;;;13.20;99.90;;;14.69;94.22;101412.84;5034356;28;20045;-80
2022/01/01 09:17:07;;;;;;;9.75;2.80;;;13.30;99.90;;;14.79;94.01;101419.91;5050786;28;20093;-78
2022/01/01 09:19:33;;;;;;;9.20;2.83;;;13.30;99.90;;;14.88;93.07;101416.88;5036746;28;20108;-80
2022/01/01 09:21:59;;;;;;;8.07;2.78;;;13.40;99.90;;;14.99;92.48;101404.69;5036627;28;20029;-79
2022/01/01 09:24:25;;;;;;;7.55;2.30;;;13.50;99.90;;;15.04;91.98;101401.56;5034317;28;20400;-78
2022/01/01 09:26:51;;;;;;;6.38;2.55;;;13.60;99.90;;;14.95;91.88;101397.34;5015520;28;20036;-79
2022/01/01 09:29:18;;;;;;;5.90;2.60;;;13.60;99.90;;;15.14;90.89;101412.22;5015598;28;20026;-79
2022/01/01 09:31:47;;;;;;;8.93;2.90;;;13.70;99.90;;;15.18;90.64;101409.47;5014688;28;20045;-77
2022/01/01 09:34:13;;;;;;;9.93;2.72;;;13.70;99.90;;;15.13;89.98;101409.75;5015672;28;20041;-79
2022/01/01 09:36:39;;;;;;;11.73;2.78;;;13.90;99.90;;;15.50;87.93;101415.78;5015858;28;20751;-78
2022/01/01 09:39:09;;;;;;;13.73;2.60;;;14.00;99.90;;;15.82;87.01;101417.19;5015675;28;20061;-79
2022/01/01 09:41:40;;;;;;;10.18;2.65;;;14.30;99.90;;;16.17;85.66;101411.34;5015435;28;20030;-80
2022/01/01 09:44:17;;;;;;;7.53;2.67;;;14.60;99.90;;;16.23;83.08;101402.19;5014867;28;20034;-78
2022/01/01 09:47:56;;;;;;;9.00;3.17;;;14.80;99.90;;;16.41;82.45;101388.34;5016420;28;20052;-81
2022/01/01 09:50:22;;;;;;;11.90;2.75;;;15.00;99.90;;;16.51;81.31;101390.50;4919910;29;20035;-81
2022/01/01 09:52:48;;;;;;;7.57;2.58;;;15.10;99.90;;;16.41;81.88;101396.78;5001206;28;20049;-80
2022/01/01 09:55:14;;;;;;;10.88;2.75;;;15.00;99.90;;;15.98;82.54;101395.31;5016240;28;20030;-79
2022/01/01 09:57:40;;;;;;;7.72;2.42;;;14.90;99.90;;;16.10;82.74;101395.13;5013702;28;20548;-80
2022/01/01 10:00:07;;;;;;;7.75;2.40;;;14.80;99.90;;;15.94;83.25;101397.25;5014400;28;20072;-81
2022/01/01 10:02:36;;;;;;;7.40;2.20;;;14.70;99.90;;;15.90;83.18;101402.00;5015849;28;20030;-78
2022/01/01 10:05:06;;;;;;;8.20;2.30;;;14.80;99.90;;;15.91;82.67;101402.81;5015319;28;20183;-79
2022/01/01 10:07:32;;;;;;;15.07;2.92;;;14.70;99.90;;;15.97;82.62;101407.78;5015073;28;20025;-77